Terminal Aerodrome Forecast
Issued by NWS Greer, SC

Home | Current Version | Previous Version | Text Only | Print | Product List | Glossary On
Versions: 1 2 3 4 5 6 7 8 9 10 11 12 13 14 15 16 17 18
000
FTUS42 KGSP 211100
TAFGSP
TAF
KGSP 211123Z 2112/2212 34003KT P6SM SCT250
     FM211500 03003KT P6SM FEW060 SCT250
     FM212000 31003KT P6SM FEW060 SCT250=

USA.gov is the U.S. government's official web portal to all federal, state and local government web resources and services.